Flight Information

DEPARTURE
FRESNO, CA
Elevation:
335
Runways:
11L/29R - 9539x150 - ASPH-G
11R/29L - 8008x150 - ASPH-G
ATIS:
121.35
Clearance Delivery:
124.35
Ground:
121.7
Tower:
FRESNO TOWER 118.2
DESTINATION
SCAPPOOSE, OR
Elevation:
58
TPA:
1058 (est.)
Runways:
15/33 - 5100x100 - ASPH-F
CTAF:
122.800


557.8 NM346° True-15° Var331° HDG

Flight Plan:
(click to file on line)

1. Type
2. Aircraft Identification
3. Aircraft Type / Special Equipment
4. True Airspeed
kts
5. Departure Airport
(ICAO code)
6. Arriving Airport
(ICAO code)
7. Cruising Altitude
ft
8. Alternate Airport
(ICAO code)
9. Route of Flight
10. Remarks


00:00:00 Departure ATIS: Destination ATIS:

Clearance Limit:
Route:
Altitude: Expect in minutes
Frequency:
Transponder: (7500 Hijack / 7600 Lost Comms / 7700 Emergency)


KFAT 211653Z 12004KT 8SM BKN130 22/12 A3012 RMK AO2 SLP197 FU BKN130 MTNS OBSC FU HZ DSNT N-E-S T02220117 $
Time: 2021-09-21T16:53:00Z
1632244334
Winds: 120 @ 4 kts
Visibility: 8.0 sm
Clouds (AGL): BKN 13000
Temperature: 22.2 C
Dew Point: 11.7 C
Pressure: 30.121063 in Hgbr

KSPB 211653Z AUTO 00000KT 10SM CLR 18/10 A3015 RMK AO2 SLP208 T01830100
Time: 2021-09-21T16:53:00Z
1632244334
Winds: calm
Visibility: 10.0 sm
Clouds (AGL): CLR
Temperature: 18.3 C
Dew Point: 10.0 C
Pressure: 30.15059 in Hgbr


Notes:

Data extracted from FAA Digital Chart Supplement. Effective: 0901Z Thursday, AUG 12, 2021 to 0901Z Thursday, OCT 7, 2021
Current ATIS data is provided courtisy of PilotEdge.